Detall de PIREP

Printer-friendly versionPDF version

[2014/10/02 07:27:00]
Flight IATA:CT3204
Pilot Number:042
Company ICAO:CAT
Aircraft Type:B463/A
PAX:23
Aircraft Registration:PAX
Departing Airport: LEPA
Destination Airport: EDDT
Alternate Airport:EDDP
Online: VATSIM
Route:MEROS UN853 LUMAS UT16 ADITA UN870 MAXIR UN853 MOBLO UZ662 LAMUR UZ67 KORED UN871 DITON T163 ZUE T125 ROMIR UN851 LOHRE UN746 ROBEL T200 RUDAK
Flight Level:F340
No Slew and time accel
No pause
Crash detect
Detect pilot in Cockpit between each 30 and 45 minutes
07:27 Zero fuel Weight: 80444 Lbs, Fuel Weight: 22760 Lbs
07:27 VATSIM:LEPA 020600Z VRB02KT 9999 FEW022 17/17 Q1023 NOSIG
07:27 VATSIM:EDDT 020620Z VRB01KT 2700 BCFG BR NSC 13/12 Q1029 TEMPO 3000 BR
07:40 Parking Brakes off
07:48 Take-off
07:48 Take off Weight: 102047 Lbs
07:48 Wind: 047º @ 000 Knots Heading: 238º
07:48 POS N39º 33´ 08´´ E002º 43´ 18´´
07:48 Flaps:2 at 161 Knots
07:48 Gear Up: 162 Knots
07:49 Flaps:1 at 145 Knots
07:50 Flaps:0 at 186 Knots
08:03 Wind:268º@020 Knots Heading: 058º Ground Speed: 379 Knots Altitude 27801 ft
08:09 TOC
08:09 Fuel Weight: 18347 Lb
08:18 Wind:300º@022 Knots Heading: 007º Ground Speed: 398 Knots Altitude 34251 ft
08:33 Wind:325º@019 Knots Heading: 031º Ground Speed: 398 Knots Altitude 34199 ft
08:48 Wind:000º@019 Knots Heading: 024º Ground Speed: 389 Knots Altitude 34301 ft
09:03 Wind:000º@019 Knots Heading: 357º Ground Speed: 387 Knots Altitude 34396 ft
09:18 Wind:343º@016 Knots Heading: 050º Ground Speed: 399 Knots Altitude 34435 ft
09:33 Wind:315º@025 Knots Heading: 004º Ground Speed: 387 Knots Altitude 34458 ft
09:48 Wind:315º@025 Knots Heading: 003º Ground Speed: 389 Knots Altitude 34465 ft
10:03 Wind:304º@033 Knots Heading: 057º Ground Speed: 419 Knots Altitude 34491 ft
10:06 TOD
10:06 Fuel Weight:10948 Lb
10:18 Wind:337º@014 Knots Heading: 056º Ground Speed: 288 Knots Altitude 18677 ft
10:28 Flaps:1 at 199 Knots
10:32 Flaps:2 at 186 Knots
10:33 Wind:265º@004 Knots Heading: 273º Ground Speed: 191 Knots Altitude 3001 ft
10:34 Flaps:3 at 187 Knots
10:34 Gear Down: 188 Knots
10:34 Flaps:4 at 179 Knots
10:37 Flaps:3 at 178 Knots
10:37 TouchDown:Rate -619 ft/min Speed: 147 Knots
10:37 VATSIM:EDDT 020920Z VRB02KT 7000 FEW015 BKN120 18/14 Q1029 NOSIG
10:37 Land
10:37 Wind:000º@002 Knots
10:37 Heading: 261º
10:37 Flight Duration: 02:49
10:37 Landing Weight: 89979 Lbs
10:37 POS N52º 33´ 31´´ E013º 16´ 32´´
10:44 Parking brakes on
10:44 Block to Block Duration: 03:04
10:44 Final Fuel: 8893 Lbls
10:44 Spent Fuel: 13866 Lbls
10:44 Flight Length: 1023 NM
10:44 TOD Land Length: 136 NM

Exportar CSV

Powered by Drupal - Modified by Danger4k